createdAt,value
2018-03-30T00:00:33.246Z,7.10
2018-03-30T00:03:00.692Z,9.03
2018-03-30T00:05:28.148Z,7.23
2018-03-30T00:07:55.620Z,5.30
2018-03-30T00:10:23.077Z,5.70
2018-03-30T00:12:50.550Z,5.20
2018-03-30T00:15:18.001Z,5.97
2018-03-30T00:17:45.471Z,4.93
2018-03-30T00:20:12.931Z,6.83
2018-03-30T00:22:40.409Z,7.47
2018-03-30T00:25:07.858Z,7.30
2018-03-30T00:27:35.340Z,5.83
2018-03-30T00:30:02.828Z,5.43
2018-03-30T00:32:30.306Z,6.50
2018-03-30T00:34:57.765Z,5.70
2018-03-30T00:37:25.244Z,5.43
2018-03-30T00:39:52.723Z,5.63
2018-03-30T00:42:20.200Z,5.77
2018-03-30T00:44:47.660Z,5.27
2018-03-30T00:47:15.131Z,6.17
2018-03-30T00:49:42.583Z,5.40
2018-03-30T00:52:10.057Z,7.80
2018-03-30T00:54:37.514Z,5.83
2018-03-30T00:57:04.995Z,5.70
2018-03-30T00:59:32.447Z,7.13
2018-03-30T01:01:59.915Z,6.43
2018-03-30T01:04:27.367Z,6.37
2018-03-30T01:06:54.849Z,6.37
2018-03-30T01:09:22.308Z,6.87
2018-03-30T01:11:49.778Z,6.53
2018-03-30T01:14:17.235Z,7.13
2018-03-30T01:16:44.738Z,9.20
2018-03-30T01:19:12.199Z,6.93
2018-03-30T01:21:39.675Z,7.37
2018-03-30T01:24:07.127Z,7.33
2018-03-30T01:26:34.588Z,7.27
2018-03-30T01:29:02.058Z,7.73
2018-03-30T01:31:29.512Z,5.97
2018-03-30T01:33:57.019Z,6.93
2018-03-30T01:36:24.471Z,6.90
2018-03-30T01:38:51.947Z,7.27
2018-03-30T01:41:19.399Z,6.43
2018-03-30T01:43:46.868Z,6.70
2018-03-30T01:46:14.328Z,6.80
2018-03-30T01:48:41.808Z,7.17
2018-03-30T01:51:09.280Z,6.40
2018-03-30T01:53:36.751Z,7.30
2018-03-30T01:56:04.204Z,6.53
2018-03-30T01:58:31.675Z,7.83
2018-03-30T02:00:59.143Z,6.63
2018-03-30T02:03:26.623Z,7.07
2018-03-30T02:05:54.076Z,7.23
2018-03-30T02:08:21.583Z,7.40
2018-03-30T02:10:49.074Z,6.73
2018-03-30T02:13:16.568Z,6.93
2018-03-30T02:15:44.024Z,8.20
2018-03-30T02:18:11.486Z,8.07
2018-03-30T02:20:38.953Z,8.87
2018-03-30T02:23:06.439Z,6.90
2018-03-30T02:25:33.894Z,6.93
2018-03-30T02:28:01.370Z,7.07
2018-03-30T02:30:28.825Z,7.33
2018-03-30T02:32:56.302Z,7.00
2018-03-30T02:35:23.774Z,7.63
2018-03-30T02:37:51.264Z,7.07
2018-03-30T02:40:18.839Z,6.10
2018-03-30T02:42:46.312Z,7.00
2018-03-30T02:45:13.766Z,7.97
2018-03-30T02:47:41.244Z,6.67
2018-03-30T02:50:08.709Z,6.87
2018-03-30T02:52:36.163Z,6.47
2018-03-30T02:55:03.639Z,6.30
2018-03-30T02:57:31.086Z,7.97
2018-03-30T02:59:58.564Z,6.63
2018-03-30T03:02:26.019Z,7.73
2018-03-30T03:04:53.497Z,6.77
2018-03-30T03:07:20.957Z,5.97
2018-03-30T03:09:48.434Z,6.63
2018-03-30T03:12:15.890Z,6.53
2018-03-30T03:14:43.383Z,6.20
2018-03-30T03:17:10.827Z,8.10
2018-03-30T03:19:38.294Z,6.23
2018-03-30T03:22:05.748Z,8.70
2018-03-30T03:24:33.211Z,8.15
2018-03-30T03:27:00.659Z,7.77
2018-03-30T03:29:28.130Z,6.17
2018-03-30T03:31:55.578Z,7.70
2018-03-30T03:34:23.042Z,6.83
2018-03-30T03:36:50.495Z,6.33
2018-03-30T03:39:17.968Z,8.20
2018-03-30T03:41:45.420Z,9.23
2018-03-30T03:44:12.902Z,5.60
2018-03-30T03:46:40.350Z,5.83
2018-03-30T03:49:07.824Z,9.00
2018-03-30T03:51:35.274Z,6.50
2018-03-30T03:54:02.746Z,6.43
2018-03-30T03:56:30.191Z,6.00
2018-03-30T03:58:57.663Z,8.20
2018-03-30T04:01:25.117Z,6.10
2018-03-30T04:03:52.589Z,5.90
2018-03-30T04:06:20.035Z,6.53
2018-03-30T04:08:47.511Z,5.73
2018-03-30T04:11:14.968Z,5.70
2018-03-30T04:13:42.441Z,6.73
2018-03-30T04:16:10.041Z,8.10
2018-03-30T04:18:37.492Z,7.43
2018-03-30T04:21:04.984Z,6.20
2018-03-30T04:23:32.431Z,6.27
2018-03-30T04:25:59.906Z,7.00
2018-03-30T04:28:27.355Z,8.40
2018-03-30T04:30:54.851Z,6.63
2018-03-30T04:33:22.298Z,6.93
2018-03-30T04:35:49.762Z,6.13
2018-03-30T04:38:17.219Z,8.97
2018-03-30T04:40:44.692Z,6.63
2018-03-30T04:43:12.147Z,10.00
2018-03-30T04:45:39.610Z,6.77
2018-03-30T04:48:07.059Z,6.60
2018-03-30T04:50:34.522Z,7.33
2018-03-30T04:53:01.975Z,7.20
2018-03-30T04:55:29.444Z,6.23
2018-03-30T04:57:56.895Z,6.17
2018-03-30T05:00:24.382Z,8.50
2018-03-30T05:02:51.834Z,7.23
2018-03-30T05:05:19.533Z,6.93
2018-03-30T05:07:46.990Z,7.53
2018-03-30T05:10:14.462Z,7.10
2018-03-30T05:12:41.916Z,7.50
2018-03-30T05:15:09.649Z,6.73
2018-03-30T05:17:37.518Z,7.00
2018-03-30T05:20:04.985Z,7.80
2018-03-30T05:22:32.712Z,9.00
2018-03-30T05:25:00.203Z,7.53
2018-03-30T05:27:28.511Z,6.97
2018-03-30T05:29:56.037Z,7.53
2018-03-30T05:32:24.159Z,8.20
2018-03-30T05:34:51.628Z,8.90
2018-03-30T05:37:19.080Z,8.47
2018-03-30T05:39:46.690Z,8.10
2018-03-30T05:42:14.123Z,9.27
2018-03-30T05:44:41.646Z,7.73
2018-03-30T05:47:09.169Z,7.37
2018-03-30T05:49:37.060Z,7.80
2018-03-30T05:52:04.746Z,8.90
2018-03-30T05:54:32.506Z,7.87
2018-03-30T05:57:00.099Z,7.63
2018-03-30T05:59:27.547Z,7.87
2018-03-30T06:01:55.472Z,8.73
2018-03-30T06:04:23.239Z,7.33
2018-03-30T06:06:50.954Z,7.30
2018-03-30T06:09:18.473Z,8.37
2018-03-30T06:11:45.946Z,9.93
2018-03-30T06:14:13.422Z,7.80
2018-03-30T06:16:41.330Z,7.33
2018-03-30T06:19:08.905Z,7.97
2018-03-30T06:21:37.238Z,7.07
2018-03-30T06:24:04.779Z,8.27
2018-03-30T06:26:32.311Z,7.10
2018-03-30T06:29:00.221Z,8.40
2018-03-30T06:31:27.744Z,7.40
2018-03-30T06:33:55.197Z,8.70
2018-03-30T06:36:22.675Z,8.43
2018-03-30T06:38:50.935Z,6.80
2018-03-30T06:41:18.750Z,8.53
2018-03-30T06:43:46.203Z,7.57
2018-03-30T06:46:13.701Z,6.87
2018-03-30T06:48:41.415Z,8.10
2018-03-30T06:51:08.883Z,8.67
2018-03-30T06:53:36.433Z,7.07
2018-03-30T06:56:04.226Z,7.00
2018-03-30T06:58:32.087Z,6.77
2018-03-30T07:00:59.986Z,9.50
2018-03-30T07:03:27.472Z,9.93
2018-03-30T07:05:56.117Z,7.17
2018-03-30T07:08:23.570Z,6.40
2018-03-30T07:10:51.084Z,7.53
2018-03-30T07:13:18.788Z,7.80
2018-03-30T07:15:47.147Z,6.50
2018-03-30T07:18:15.467Z,6.13
2018-03-30T07:20:42.919Z,7.67
2018-03-30T07:23:10.630Z,6.23
2018-03-30T07:25:38.118Z,6.37
2018-03-30T07:28:06.046Z,5.90
2018-03-30T07:30:33.556Z,5.60
2018-03-30T07:33:03.223Z,5.50
2018-03-30T07:35:31.602Z,5.30
2018-03-30T07:37:59.364Z,6.90
2018-03-30T07:40:26.824Z,6.97
2018-03-30T07:42:54.731Z,5.60
2018-03-30T07:45:22.260Z,5.50
2018-03-30T07:47:49.975Z,5.30
2018-03-30T07:50:17.451Z,4.70
2018-03-30T07:52:45.752Z,5.37
2018-03-30T07:55:13.299Z,4.40
2018-03-30T07:57:42.053Z,4.87
2018-03-30T08:00:09.503Z,6.13
2018-03-30T08:02:36.998Z,5.80
2018-03-30T08:05:04.474Z,5.20
2018-03-30T08:07:32.437Z,5.37
2018-03-30T08:10:00.344Z,5.70
2018-03-30T08:12:28.049Z,4.53
2018-03-30T08:14:55.522Z,5.73
2018-03-30T08:17:23.358Z,6.37
2018-03-30T08:19:50.812Z,4.87
2018-03-30T08:22:18.327Z,6.73
2018-03-30T08:24:46.915Z,6.33
2018-03-30T08:27:14.428Z,5.00
2018-03-30T08:29:41.884Z,5.83
2018-03-30T08:32:09.640Z,5.43
2018-03-30T08:34:37.147Z,6.93
2018-03-30T08:37:04.675Z,5.60
2018-03-30T08:39:32.128Z,5.20
2018-03-30T08:42:00.178Z,6.63
2018-03-30T08:44:28.308Z,5.83
2018-03-30T08:46:56.660Z,4.83
2018-03-30T08:49:24.148Z,5.10
2018-03-30T08:51:51.639Z,12.10
2018-03-30T08:54:19.755Z,6.10
2018-03-30T08:56:47.298Z,5.17
2018-03-30T08:59:14.797Z,5.90
2018-03-30T09:01:42.568Z,5.60
2018-03-30T09:04:10.091Z,5.73
2018-03-30T09:06:38.201Z,6.83
2018-03-30T09:09:06.654Z,7.37
2018-03-30T09:11:34.427Z,6.47
2018-03-30T09:14:02.068Z,6.53
2018-03-30T09:16:29.551Z,6.87
2018-03-30T09:18:59.670Z,6.67
2018-03-30T09:21:27.212Z,6.20
2018-03-30T09:23:54.717Z,6.40
2018-03-30T09:26:22.234Z,6.47
2018-03-30T09:28:49.815Z,6.33
2018-03-30T09:31:17.847Z,7.17
2018-03-30T09:33:45.534Z,6.00
2018-03-30T09:36:13.146Z,6.00
2018-03-30T09:38:40.744Z,5.97
2018-03-30T09:41:08.888Z,10.47
2018-03-30T09:43:36.472Z,7.10
2018-03-30T09:46:03.946Z,6.73
2018-03-30T09:48:31.462Z,6.57
2018-03-30T09:50:58.957Z,6.07
2018-03-30T09:53:26.567Z,6.67
2018-03-30T09:55:54.036Z,6.07
2018-03-30T09:58:21.533Z,6.53
2018-03-30T10:00:49.633Z,6.77
2018-03-30T10:03:17.379Z,7.70
2018-03-30T10:05:46.817Z,6.60
2018-03-30T10:08:14.328Z,6.20
2018-03-30T10:10:44.133Z,6.13
2018-03-30T10:13:11.633Z,7.37
2018-03-30T10:15:44.639Z,5.70
2018-03-30T10:18:12.172Z,7.47
2018-03-30T10:20:39.660Z,6.80
2018-03-30T10:23:07.140Z,6.87
2018-03-30T10:25:34.705Z,6.47
2018-03-30T10:28:02.207Z,6.93
2018-03-30T10:30:30.710Z,6.33
2018-03-30T10:32:58.223Z,6.33
2018-03-30T10:35:25.731Z,6.60
2018-03-30T10:37:53.223Z,7.63
2018-03-30T10:40:20.772Z,6.83
2018-03-30T10:42:50.115Z,5.57
2018-03-30T10:45:18.311Z,6.77
2018-03-30T10:47:45.795Z,11.90
2018-03-30T10:50:13.334Z,7.17
2018-03-30T10:52:40.922Z,6.07
2018-03-30T10:55:08.581Z,8.20
2018-03-30T10:57:36.112Z,7.93
2018-03-30T11:00:03.628Z,6.43
2018-03-30T11:02:31.114Z,6.00
2018-03-30T11:04:58.633Z,6.13
2018-03-30T11:07:26.145Z,6.50
2018-03-30T11:09:53.762Z,5.50
2018-03-30T11:12:21.260Z,6.23
2018-03-30T11:14:49.763Z,6.17
2018-03-30T11:17:17.271Z,6.10
2018-03-30T11:19:45.479Z,6.83
2018-03-30T11:22:13.005Z,7.10
2018-03-30T11:24:41.504Z,7.90
2018-03-30T11:27:08.988Z,7.47
2018-03-30T11:29:36.503Z,6.23
2018-03-30T11:32:04.006Z,5.90
2018-03-30T11:34:31.520Z,8.43
2018-03-30T11:36:59.006Z,8.27
2018-03-30T11:39:27.295Z,7.00
2018-03-30T11:41:54.794Z,6.93
2018-03-30T11:44:22.398Z,6.87
2018-03-30T11:46:49.911Z,7.07
2018-03-30T11:49:18.978Z,6.90
2018-03-30T11:51:46.511Z,6.17
2018-03-30T11:54:13.983Z,6.13
2018-03-30T11:56:41.467Z,7.30
2018-03-30T11:59:08.935Z,9.33
2018-03-30T12:01:36.463Z,6.37
2018-03-30T12:04:04.048Z,5.93
2018-03-30T12:06:31.544Z,7.73
2018-03-30T12:08:59.104Z,6.50
2018-03-30T12:11:26.610Z,5.97
2018-03-30T12:13:54.124Z,5.70
2018-03-30T12:16:21.660Z,5.60
2018-03-30T12:18:49.906Z,7.63
2018-03-30T12:21:17.999Z,5.53
2018-03-30T12:23:45.583Z,5.87
2018-03-30T12:26:13.103Z,6.13
2018-03-30T12:28:40.622Z,5.83
2018-03-30T12:31:08.220Z,6.27
2018-03-30T12:33:36.332Z,5.80
2018-03-30T12:36:04.113Z,5.80
2018-03-30T12:38:31.632Z,6.83
2018-03-30T12:40:59.136Z,6.30
2018-03-30T12:43:26.679Z,6.73
2018-03-30T12:45:54.308Z,6.47
2018-03-30T12:48:21.964Z,6.90
2018-03-30T12:50:50.513Z,6.57
2018-03-30T12:53:19.156Z,6.03
2018-03-30T12:55:46.673Z,5.17
2018-03-30T12:58:14.172Z,6.43
2018-03-30T13:00:41.780Z,5.83
2018-03-30T13:03:09.349Z,5.47
2018-03-30T13:05:36.912Z,6.10
2018-03-30T13:08:04.416Z,5.13
2018-03-30T13:10:32.012Z,5.33
2018-03-30T13:12:59.599Z,6.60
2018-03-30T13:15:27.356Z,6.13
2018-03-30T13:17:55.352Z,4.70
2018-03-30T13:20:22.980Z,5.10
2018-03-30T13:22:50.803Z,5.97
2018-03-30T13:25:19.208Z,4.90
2018-03-30T13:27:46.824Z,5.27
2018-03-30T13:30:14.751Z,6.00
2018-03-30T13:32:42.327Z,5.77
2018-03-30T13:35:10.067Z,5.70
2018-03-30T13:37:38.060Z,4.40
2018-03-30T13:40:05.845Z,5.07
2018-03-30T13:42:33.467Z,4.83
2018-03-30T13:45:00.948Z,4.33
2018-03-30T13:47:28.893Z,4.50
2018-03-30T13:49:56.799Z,4.10
2018-03-30T13:52:29.826Z,5.17
2018-03-30T13:54:57.303Z,5.23
2018-03-30T13:57:26.377Z,4.67
2018-03-30T13:59:57.191Z,4.47
2018-03-30T14:02:29.951Z,3.40
2018-03-30T14:04:58.159Z,3.67
2018-03-30T14:07:41.287Z,3.90
2018-03-30T14:10:13.264Z,4.80
2018-03-30T14:12:41.818Z,4.23
2018-03-30T14:15:26.679Z,5.47
2018-03-30T14:18:12.744Z,3.10
2018-03-30T14:20:41.002Z,3.53
2018-03-30T14:23:15.055Z,3.63
2018-03-30T14:25:44.603Z,3.77
2018-03-30T14:28:13.093Z,3.03
2018-03-30T14:30:43.407Z,3.40
2018-03-30T14:33:14.592Z,3.30
2018-03-30T14:38:39.039Z,2.97
2018-03-30T14:41:06.500Z,4.40
2018-03-30T14:43:56.525Z,3.60
2018-03-30T14:46:26.793Z,3.00
2018-03-30T14:48:55.079Z,3.00
2018-03-30T14:51:35.872Z,6.60
2018-03-30T14:54:19.926Z,3.23
2018-03-30T14:56:51.163Z,3.13
2018-03-30T14:59:33.086Z,2.93
2018-03-30T15:02:13.206Z,3.10
2018-03-30T15:04:41.996Z,3.53
2018-03-30T15:07:13.033Z,2.90
2018-03-30T15:09:41.183Z,3.33
2018-03-30T15:12:22.415Z,3.10
2018-03-30T15:14:49.867Z,3.63
2018-03-30T15:17:19.195Z,3.17
2018-03-30T15:19:51.405Z,2.70
2018-03-30T15:22:27.627Z,3.43
2018-03-30T15:25:09.439Z,2.97
2018-03-30T15:27:41.479Z,4.20
2018-03-30T15:30:22.586Z,3.23
2018-03-30T15:36:22.483Z,4.03
2018-03-30T15:38:49.943Z,3.43
2018-03-30T15:41:17.400Z,3.53
2018-03-30T15:43:46.826Z,3.40
2018-03-30T15:49:24.090Z,5.00
2018-03-30T15:51:53.135Z,3.77
2018-03-30T15:54:20.506Z,3.13
2018-03-30T15:56:48.003Z,3.23
2018-03-30T15:59:15.463Z,3.93
2018-03-30T16:01:42.945Z,3.40
2018-03-30T16:04:10.416Z,3.90
2018-03-30T16:06:37.887Z,3.30
2018-03-30T16:09:08.131Z,3.33
2018-03-30T16:11:37.409Z,3.30
2018-03-30T16:14:04.891Z,3.70
2018-03-30T16:16:32.359Z,3.73
2018-03-30T16:18:59.318Z,3.93
2018-03-30T16:21:26.239Z,4.83
2018-03-30T16:23:53.187Z,5.60
2018-03-30T16:26:20.108Z,6.77
2018-03-30T16:28:47.051Z,4.70
2018-03-30T16:31:13.967Z,9.97
2018-03-30T16:33:40.915Z,4.20
2018-03-30T16:36:07.845Z,4.03
2018-03-30T16:38:34.783Z,4.00
2018-03-30T16:41:01.717Z,4.27
2018-03-30T16:43:28.661Z,3.70
2018-03-30T16:45:55.584Z,4.40
2018-03-30T16:48:22.526Z,4.30
2018-03-30T16:50:49.459Z,4.10
2018-03-30T16:53:16.401Z,4.73
2018-03-30T16:55:43.331Z,4.63
2018-03-30T16:58:10.275Z,4.07
2018-03-30T17:00:37.212Z,4.20
2018-03-30T17:03:04.264Z,3.83
2018-03-30T17:05:31.203Z,3.37
2018-03-30T17:07:58.124Z,3.90
2018-03-30T17:10:25.063Z,4.97
2018-03-30T17:12:51.989Z,4.20
2018-03-30T17:15:18.936Z,6.10
2018-03-30T17:17:45.851Z,4.60
2018-03-30T17:20:12.792Z,4.10
2018-03-30T17:22:39.707Z,4.50
2018-03-30T17:25:06.767Z,4.63
2018-03-30T17:27:33.748Z,4.50
2018-03-30T17:30:01.008Z,4.10
2018-03-30T17:32:27.933Z,4.83
2018-03-30T17:34:54.870Z,4.73
2018-03-30T17:37:21.791Z,6.27
2018-03-30T17:39:48.732Z,4.30
2018-03-30T17:42:15.886Z,5.43
2018-03-30T17:44:42.843Z,7.43
2018-03-30T17:47:09.800Z,5.37
2018-03-30T17:49:36.742Z,4.90
2018-03-30T17:52:03.668Z,4.20
2018-03-30T17:54:30.615Z,4.03
2018-03-30T17:56:57.548Z,4.00
2018-03-30T17:59:24.501Z,4.47
2018-03-30T18:01:51.543Z,2.57
2018-03-30T18:04:18.493Z,2.20
2018-03-30T18:06:45.412Z,2.73
2018-03-30T18:09:12.350Z,1.83
2018-03-30T18:11:39.264Z,2.30
2018-03-30T18:14:06.208Z,1.90
2018-03-30T18:16:33.135Z,1.77
2018-03-30T18:19:00.103Z,1.57
2018-03-30T18:21:27.063Z,1.97
2018-03-30T18:23:54.012Z,1.60
2018-03-30T18:26:20.945Z,1.80
2018-03-30T18:28:47.955Z,1.57
2018-03-30T18:31:14.900Z,1.70
2018-03-30T18:33:42.060Z,1.10
2018-03-30T18:36:08.992Z,1.40
2018-03-30T18:38:35.908Z,1.30
2018-03-30T18:41:02.849Z,1.20
2018-03-30T18:43:29.769Z,1.10
2018-03-30T18:45:56.715Z,1.20
2018-03-30T18:48:23.632Z,1.03
2018-03-30T18:50:50.683Z,1.17
2018-03-30T18:53:17.617Z,1.63
2018-03-30T18:55:44.560Z,1.83
2018-03-30T18:58:11.484Z,1.43
2018-03-30T19:00:38.486Z,0.93
2018-03-30T19:03:05.405Z,1.00
2018-03-30T19:05:32.335Z,1.37
2018-03-30T19:07:59.284Z,1.27
2018-03-30T19:10:26.211Z,1.90
2018-03-30T19:12:54.105Z,2.40
2018-03-30T19:15:21.034Z,2.17
2018-03-30T19:17:47.944Z,2.50
2018-03-30T19:20:25.570Z,1.33
2018-03-30T19:22:52.491Z,9.13
2018-03-30T19:25:19.423Z,4.43
2018-03-30T19:27:46.336Z,4.50
2018-03-30T19:30:13.284Z,2.50
2018-03-30T19:32:40.201Z,1.83
2018-03-30T19:35:08.180Z,1.80
2018-03-30T19:37:35.331Z,2.17
2018-03-30T19:40:02.273Z,2.10
2018-03-30T19:42:29.201Z,1.93
2018-03-30T19:44:56.135Z,1.80
2018-03-30T19:47:23.071Z,2.50
2018-03-30T19:49:50.796Z,2.90
2018-03-30T19:52:17.730Z,4.83
2018-03-30T19:54:44.654Z,2.87
2018-03-30T19:57:11.586Z,3.60
2018-03-30T19:59:38.495Z,2.87
2018-03-30T20:02:05.456Z,3.27
2018-03-30T20:04:33.017Z,3.30
2018-03-30T20:06:59.943Z,3.30
2018-03-30T20:09:26.862Z,5.37
2018-03-30T20:11:53.795Z,3.90
2018-03-30T20:14:20.731Z,5.03
2018-03-30T20:16:47.736Z,4.57
2018-03-30T20:19:14.702Z,2.90
2018-03-30T20:21:41.640Z,3.00
2018-03-30T20:24:08.551Z,3.13
2018-03-30T20:26:47.072Z,3.30
2018-03-30T20:29:13.991Z,3.30
2018-03-30T20:31:40.931Z,2.80
2018-03-30T20:34:07.850Z,2.60
2018-03-30T20:36:44.751Z,2.80
2018-03-30T20:39:11.676Z,2.73
2018-03-30T20:41:38.611Z,2.73
2018-03-30T20:44:05.529Z,2.73
2018-03-30T20:46:32.473Z,2.87
2018-03-30T20:48:59.392Z,2.80
2018-03-30T20:51:26.328Z,2.70
2018-03-30T20:53:53.251Z,2.50
2018-03-30T20:56:26.993Z,2.47
2018-03-30T20:58:53.919Z,3.47
2018-03-30T21:01:20.955Z,2.70
2018-03-30T21:03:47.873Z,2.70
2018-03-30T21:06:14.818Z,2.90
2018-03-30T21:08:41.741Z,3.00
2018-03-30T21:11:08.675Z,2.70
2018-03-30T21:13:35.662Z,2.67
2018-03-30T21:16:02.625Z,2.40
2018-03-30T21:18:29.554Z,2.80
2018-03-30T21:20:56.495Z,2.90
2018-03-30T21:23:23.414Z,3.10
2018-03-30T21:25:50.328Z,3.00
2018-03-30T21:28:17.255Z,2.90
2018-03-30T21:30:44.162Z,3.10
2018-03-30T21:33:11.095Z,3.20
2018-03-30T21:35:38.014Z,2.77
2018-03-30T21:38:04.955Z,2.90
2018-03-30T21:40:31.867Z,3.20
2018-03-30T21:42:58.812Z,2.90
2018-03-30T21:45:29.815Z,3.10
2018-03-30T21:47:56.747Z,3.27
2018-03-30T21:50:23.673Z,3.67
2018-03-30T21:52:50.606Z,3.50
2018-03-30T21:55:17.515Z,3.43
2018-03-30T21:57:44.449Z,3.33
2018-03-30T22:00:12.127Z,3.23
2018-03-30T22:02:39.074Z,3.17
2018-03-30T22:05:05.987Z,3.93
2018-03-30T22:07:32.927Z,4.03
2018-03-30T22:09:59.841Z,3.50
2018-03-30T22:12:26.771Z,3.87
2018-03-30T22:14:54.602Z,3.83
2018-03-30T22:17:21.540Z,3.70
2018-03-30T22:19:48.454Z,3.70
2018-03-30T22:22:15.397Z,4.27
2018-03-30T22:24:42.311Z,4.30
2018-03-30T22:27:09.248Z,3.73
2018-03-30T22:29:36.172Z,3.83
2018-03-30T22:32:03.107Z,3.90
2018-03-30T22:34:30.042Z,4.03
2018-03-30T22:36:56.975Z,4.10
2018-03-30T22:39:23.899Z,4.00
2018-03-30T22:41:50.835Z,4.27
2018-03-30T22:44:17.763Z,4.20
2018-03-30T22:46:44.710Z,4.30
2018-03-30T22:49:11.624Z,4.23
2018-03-30T22:51:38.532Z,4.40
2018-03-30T22:54:05.469Z,4.07
2018-03-30T22:56:32.383Z,4.30
2018-03-30T22:58:59.314Z,4.70
2018-03-30T23:01:26.244Z,5.80
2018-03-30T23:03:53.175Z,5.97
2018-03-30T23:06:20.100Z,5.30
2018-03-30T23:08:47.039Z,5.17
2018-03-30T23:11:13.962Z,4.80
2018-03-30T23:13:40.902Z,4.60
2018-03-30T23:16:07.828Z,5.10
2018-03-30T23:18:34.767Z,4.70
2018-03-30T23:21:01.683Z,4.43
2018-03-30T23:23:28.610Z,4.83
2018-03-30T23:25:55.540Z,4.83
2018-03-30T23:28:22.475Z,4.57
2018-03-30T23:30:49.387Z,4.87
2018-03-30T23:33:16.315Z,5.03
2018-03-30T23:35:44.054Z,5.40
2018-03-30T23:38:10.991Z,5.73
2018-03-30T23:40:37.912Z,5.57
2018-03-30T23:43:04.843Z,4.87
2018-03-30T23:45:31.751Z,5.63
2018-03-30T23:47:58.696Z,5.20
2018-03-30T23:50:25.611Z,5.43
2018-03-30T23:52:53.173Z,5.93
2018-03-30T23:55:20.091Z,5.80
2018-03-30T23:57:47.064Z,5.73
